Highbridge, Wisconsin
Current Conditions -  °F | °C
As of 10:53 PM on Sunday 19 Oct 2014 (Local Time) from KASX Reporting Station
Overcast Overcast  
Wind Chill: 54°   Ceiling: 9500
Heat Index: 54°   Visibility: 10mi
Dew Point: 44°   Wind: 10mph
Humidity: 69%   Direction: 330°NNW
Pressure: 29.77"   Gusts: NA
Location:  46.3834°N, 90.7366°W
Report Text: KASX 200353Z AUTO 33009KT 10SM SCT060 OVC095 12/07 A2977 RMK AO2 SLP087 T01220067
Loading
Personal Weather Stations






























Interactive Weather Map
Tropical Storm Tracking
New forecast layout! Learn more

10-Day Weather Forecast

Advertisements
Track Severe Weather on mobile